Overview Statistics Trail Chart Weather Telemetry Raw packets
 

This is the latest recevied weather packets stored in our database for station/object LU2DKV-10. If no packets are shown the sender has not sent any weather packets the latest 10 day(s).

<< 9 10 11 12 13 14 15 >>
Time Temp. Humidity Pressure Rain* Wind** Luminosity Snow
1788141460 15° C 75% 1017 hPa - - 0 W/m² -
1788139635 15° C 74% 1015 hPa - - 0 W/m² -
1788137812 15° C 72% 1015 hPa - - 0 W/m² -
1788135990 15° C 70% 1015 hPa - - 0 W/m² -
1788134163 15.56° C 63% 1015 hPa - - 0 W/m² -
1788132342 15.56° C 56% 1015 hPa - - 0 W/m² -
1788130520 16.67° C 49% 1015 hPa - - 0 W/m² -
1788128696 16.67° C 49% 1015 hPa - - 0 W/m² -
1788126870 17.22° C 49% 1015 hPa - - 0 W/m² -
1788125046 17.78° C 53% 1014 hPa - - 0 W/m² -
1788123224 18.33° C 50% 1014 hPa - - 0 W/m² -
1788121397 18.89° C 48% 1014 hPa - - 0 W/m² -
1788119572 19.44° C 46% 1014 hPa - - 0 W/m² -
1788117749 19.44° C 46% 1014 hPa - - 0 W/m² -
1788115922 19.44° C 46% 1014 hPa - - 0 W/m² -
1788114095 19.44° C 46% 1015 hPa - - 0 W/m² -
1788112273 18.89° C 44% 1015 hPa - - 0 W/m² -
1788110451 18.89° C 44% 1015 hPa - - 0 W/m² -
1788108627 18.33° C 49% 1016 hPa - - 0 W/m² -
1788106805 18.33° C 55% 1016 hPa - - 0 W/m² -
1788104982 17.22° C 63% 1016 hPa - - 0 W/m² -
1788103162 16.67° C 71% 1017 hPa - - 0 W/m² -
1788101335 16.67° C 74% 1017 hPa - - 0 W/m² -
1788099511 16.11° C 75% 1017 hPa - - 0 W/m² -
1788097689 15.56° C 77% 1017 hPa - - 0 W/m² -

* Rain since midnight (hover to see other rain measurements)
** Current wind speed in m/s (hover to see current wind gust speed)